createdAt,value
2019-02-15T00:03:39.196Z,16.03
2019-02-15T00:08:46.347Z,8.68
2019-02-15T00:13:53.475Z,5.85
2019-02-15T00:19:00.677Z,5.68
2019-02-15T00:24:08.192Z,4.19
2019-02-15T00:29:15.296Z,9.17
2019-02-15T00:34:22.470Z,8.75
2019-02-15T00:39:29.591Z,8.04
2019-02-15T00:44:36.711Z,7.76
2019-02-15T00:49:43.818Z,10.22
2019-02-15T00:54:50.973Z,8.68
2019-02-15T00:59:58.114Z,5.39
2019-02-15T01:05:05.264Z,6.66
2019-02-15T01:10:12.407Z,5.74
2019-02-15T01:15:19.547Z,4.45
2019-02-15T01:20:26.639Z,3.82
2019-02-15T01:25:33.774Z,4.20
2019-02-15T01:30:40.884Z,6.75
2019-02-15T01:35:48.065Z,3.59
2019-02-15T01:40:55.192Z,3.32
2019-02-15T01:46:02.385Z,2.66
2019-02-15T01:51:09.494Z,3.67
2019-02-15T01:56:16.656Z,3.08
2019-02-15T02:01:23.802Z,2.80
2019-02-15T02:06:30.975Z,2.82
2019-02-15T02:11:38.104Z,2.88
2019-02-15T02:16:45.357Z,2.85
2019-02-15T02:21:52.511Z,2.74
2019-02-15T02:26:59.654Z,2.66
2019-02-15T02:32:06.802Z,2.65
2019-02-15T02:37:13.941Z,2.75
2019-02-15T02:42:21.116Z,3.10
2019-02-15T02:47:28.245Z,2.99
2019-02-15T02:52:35.491Z,2.66
2019-02-15T02:57:42.619Z,2.72
2019-02-15T03:02:49.785Z,2.45
2019-02-15T03:07:57.099Z,2.78
2019-02-15T03:13:04.626Z,2.64
2019-02-15T03:18:11.851Z,2.37
2019-02-15T03:23:18.957Z,2.76
2019-02-15T03:28:26.101Z,2.50
2019-02-15T03:33:33.227Z,2.29
2019-02-15T03:38:40.419Z,2.67
2019-02-15T03:43:47.533Z,2.69
2019-02-15T03:48:54.630Z,2.47
2019-02-15T03:54:01.757Z,2.61
2019-02-15T03:59:09.040Z,2.38
2019-02-15T04:04:16.265Z,2.29
2019-02-15T04:09:23.371Z,2.26
2019-02-15T04:14:32.909Z,2.21
2019-02-15T04:19:37.084Z,2.12
2019-02-15T04:24:44.284Z,2.12
2019-02-15T04:29:51.381Z,2.32
2019-02-15T04:34:58.428Z,2.28
2019-02-15T04:40:05.856Z,2.28
2019-02-15T04:45:12.967Z,2.22
2019-02-15T04:50:20.096Z,2.29
2019-02-15T04:55:27.162Z,2.24
2019-02-15T05:00:34.293Z,2.44
2019-02-15T05:05:41.375Z,2.30
2019-02-15T05:10:48.451Z,2.08
2019-02-15T05:15:55.565Z,2.45
2019-02-15T05:21:02.661Z,2.53
2019-02-15T05:26:09.888Z,2.78
2019-02-15T05:31:16.992Z,2.83
2019-02-15T05:36:24.080Z,2.37
2019-02-15T05:41:31.295Z,2.45
2019-02-15T05:46:38.399Z,2.64
2019-02-15T05:51:47.415Z,2.60
2019-02-15T05:56:52.465Z,2.47
2019-02-15T06:01:59.569Z,2.35
2019-02-15T06:07:06.685Z,2.13
2019-02-15T06:12:13.765Z,2.52
2019-02-15T06:17:20.877Z,2.43
2019-02-15T06:22:28.050Z,2.59
2019-02-15T06:27:35.174Z,2.35
2019-02-15T06:32:42.296Z,2.30
2019-02-15T06:37:49.727Z,2.27
2019-02-15T06:42:56.976Z,2.30
2019-02-15T06:48:04.128Z,2.17
2019-02-15T06:53:11.223Z,2.39
2019-02-15T06:58:18.314Z,2.14
2019-02-15T07:03:25.479Z,2.13
2019-02-15T07:08:32.588Z,2.22
2019-02-15T07:13:39.739Z,2.25
2019-02-15T07:18:46.968Z,2.06
2019-02-15T07:23:54.076Z,2.53
2019-02-15T07:29:01.163Z,3.77
2019-02-15T07:34:08.275Z,2.70
2019-02-15T07:39:15.391Z,2.95
2019-02-15T07:44:22.671Z,2.53
2019-02-15T07:49:29.791Z,2.50
2019-02-15T07:54:36.905Z,2.46
2019-02-15T07:59:44.043Z,2.52
2019-02-15T08:04:51.090Z,2.44
2019-02-15T08:09:58.143Z,2.23
2019-02-15T08:15:05.482Z,2.35
2019-02-15T08:20:12.613Z,2.32
2019-02-15T08:25:19.925Z,2.61
2019-02-15T08:30:27.130Z,2.54
2019-02-15T08:35:34.429Z,2.98
2019-02-15T08:40:41.536Z,2.85
2019-02-15T08:45:48.801Z,4.01
2019-02-15T08:50:55.886Z,3.40
2019-02-15T08:56:02.962Z,2.52
2019-02-15T09:01:12.225Z,3.09
2019-02-15T09:06:22.427Z,2.95
2019-02-15T09:11:21.298Z,2.87
2019-02-15T09:16:30.268Z,2.88
2019-02-15T09:21:38.705Z,2.78
2019-02-15T09:26:46.349Z,3.01
2019-02-15T09:31:53.837Z,2.70
2019-02-15T09:37:01.731Z,2.61
2019-02-15T09:42:09.562Z,2.21
2019-02-15T09:47:17.396Z,2.48
2019-02-15T09:52:25.306Z,2.40
2019-02-15T09:57:32.913Z,2.29
2019-02-15T10:02:40.398Z,2.37
2019-02-15T10:07:47.484Z,2.37
2019-02-15T10:12:54.979Z,2.36
2019-02-15T10:18:02.076Z,2.19
2019-02-15T10:23:09.160Z,2.14
2019-02-15T10:28:16.598Z,2.15
2019-02-15T10:33:24.077Z,2.14
2019-02-15T10:38:31.441Z,2.23
2019-02-15T10:43:38.568Z,2.33
2019-02-15T10:48:45.714Z,2.11
2019-02-15T10:53:52.976Z,2.22
2019-02-15T10:59:00.266Z,2.15
2019-02-15T11:04:07.400Z,2.02
2019-02-15T11:09:15.700Z,2.12
2019-02-15T11:14:22.918Z,2.05
2019-02-15T11:19:30.018Z,2.02
2019-02-15T11:24:37.113Z,1.95
2019-02-15T11:29:44.239Z,1.96
2019-02-15T11:34:51.300Z,1.98
2019-02-15T11:39:58.408Z,1.98
2019-02-15T11:45:05.709Z,1.85
2019-02-15T11:50:12.822Z,1.88
2019-02-15T11:55:21.733Z,1.96
2019-02-15T12:00:31.224Z,1.56
2019-02-15T12:05:40.701Z,1.84
2019-02-15T12:10:49.159Z,1.63
2019-02-15T12:15:58.268Z,1.92
2019-02-15T12:21:06.457Z,1.87
2019-02-15T12:26:13.872Z,1.88
2019-02-15T12:31:21.363Z,1.86
2019-02-15T12:36:29.090Z,1.86
2019-02-15T12:41:36.572Z,1.82
2019-02-15T12:46:43.803Z,1.94
2019-02-15T12:51:51.177Z,1.81
2019-02-15T12:56:58.460Z,1.87
2019-02-15T13:02:05.693Z,1.85
2019-02-15T13:07:12.905Z,1.90
2019-02-15T13:12:20.239Z,1.80
2019-02-15T13:17:27.566Z,1.85
2019-02-15T13:22:34.863Z,1.98
2019-02-15T13:27:42.182Z,1.88
2019-02-15T13:32:49.533Z,1.81
2019-02-15T13:37:56.975Z,1.84
2019-02-15T13:43:04.034Z,1.84
2019-02-15T13:48:11.490Z,1.69
2019-02-15T13:53:18.791Z,1.64
2019-02-15T13:58:26.936Z,1.73
2019-02-15T14:03:34.080Z,1.73
2019-02-15T14:08:41.241Z,1.65
2019-02-15T14:13:48.380Z,1.64
2019-02-15T14:18:55.475Z,1.54
2019-02-15T14:24:02.629Z,1.61
2019-02-15T14:29:09.695Z,1.63
2019-02-15T14:34:16.770Z,1.41
2019-02-15T14:39:23.853Z,1.43
2019-02-15T14:44:30.927Z,1.31
2019-02-15T14:49:38.008Z,1.36
2019-02-15T14:54:45.119Z,1.28
2019-02-15T14:59:52.195Z,1.37
2019-02-15T15:04:59.250Z,1.32
2019-02-15T15:10:06.568Z,1.30
2019-02-15T15:15:13.681Z,1.25
2019-02-15T15:20:20.878Z,1.29
2019-02-15T15:25:27.977Z,1.28
2019-02-15T15:30:35.049Z,1.28
2019-02-15T15:35:42.398Z,1.28
2019-02-15T15:40:50.489Z,1.47
2019-02-15T15:45:57.620Z,2.08
2019-02-15T15:51:05.156Z,1.61
2019-02-15T15:56:12.448Z,1.35
2019-02-15T16:01:19.657Z,1.66
2019-02-15T16:06:26.749Z,1.57
2019-02-15T16:11:33.820Z,1.41
2019-02-15T16:16:40.908Z,1.42
2019-02-15T16:21:48.028Z,1.38
2019-02-15T16:26:54.135Z,1.50
2019-02-15T16:32:01.363Z,2.15
2019-02-15T16:37:08.465Z,1.64
2019-02-15T16:42:15.671Z,1.54
2019-02-15T16:47:22.792Z,2.03
2019-02-15T16:52:30.220Z,3.20
2019-02-15T16:57:37.417Z,3.10
2019-02-15T17:02:44.515Z,1.78
2019-02-15T17:07:51.809Z,1.92
2019-02-15T17:12:59.136Z,2.40
2019-02-15T17:18:06.248Z,4.28
2019-02-15T17:23:13.374Z,3.97
2019-02-15T17:28:21.302Z,3.47
2019-02-15T17:33:28.375Z,4.27
2019-02-15T17:38:35.513Z,27.12
2019-02-15T17:43:42.649Z,4.19
2019-02-15T17:48:49.807Z,2.10
2019-02-15T17:53:56.902Z,6.23
2019-02-15T17:59:04.600Z,2.51
2019-02-15T18:04:11.775Z,7.50
2019-02-15T18:09:19.800Z,3.21
2019-02-15T18:14:27.139Z,3.23
2019-02-15T18:19:34.460Z,2.68
2019-02-15T18:24:41.648Z,3.52
2019-02-15T18:29:48.804Z,3.07
2019-02-15T18:34:55.915Z,3.82
2019-02-15T18:40:03.004Z,4.39
2019-02-15T18:45:10.085Z,4.91
2019-02-15T18:50:17.245Z,4.30
2019-02-15T18:55:24.392Z,3.08
2019-02-15T19:00:31.595Z,3.87
2019-02-15T19:05:38.823Z,4.37
2019-02-15T19:10:46.124Z,3.77
2019-02-15T19:15:53.428Z,4.20
2019-02-15T19:21:00.713Z,4.35
2019-02-15T19:26:07.852Z,4.33
2019-02-15T19:31:14.916Z,4.00
2019-02-15T19:36:22.052Z,5.08
2019-02-15T19:41:29.342Z,5.33
2019-02-15T19:46:36.487Z,4.65
2019-02-15T19:51:43.613Z,5.78
2019-02-15T19:56:50.782Z,4.48
2019-02-15T20:01:57.918Z,3.48
2019-02-15T20:07:05.016Z,4.14
2019-02-15T20:12:12.393Z,4.91
2019-02-15T20:17:19.669Z,4.66
2019-02-15T20:22:26.839Z,6.72
2019-02-15T20:27:34.224Z,4.52
2019-02-15T20:32:41.327Z,5.00
2019-02-15T20:37:48.722Z,6.36
2019-02-15T20:42:56.018Z,5.71
2019-02-15T20:48:03.417Z,4.85
2019-02-15T20:53:10.691Z,4.61
2019-02-15T20:58:18.010Z,3.93
2019-02-15T21:03:25.148Z,5.28
2019-02-15T21:08:32.505Z,4.13
2019-02-15T21:13:40.417Z,4.52
2019-02-15T21:18:47.731Z,4.59
2019-02-15T21:23:55.161Z,5.47
2019-02-15T21:29:02.482Z,4.28
2019-02-15T21:34:10.103Z,4.23
2019-02-15T21:39:17.778Z,4.21
2019-02-15T21:44:25.261Z,5.67
2019-02-15T21:49:32.548Z,4.46
2019-02-15T21:54:39.967Z,3.95
2019-02-15T21:59:47.292Z,4.67
2019-02-15T22:04:54.604Z,6.59
2019-02-15T22:10:01.837Z,5.02
2019-02-15T22:15:09.136Z,3.94
2019-02-15T22:20:16.406Z,3.99
2019-02-15T22:25:23.678Z,3.87
2019-02-15T22:30:30.938Z,3.92
2019-02-15T22:35:38.344Z,7.59
2019-02-15T22:40:45.669Z,6.79
2019-02-15T22:45:53.000Z,7.10
2019-02-15T22:51:00.441Z,5.15
2019-02-15T22:56:07.823Z,6.05
2019-02-15T23:01:20.067Z,11.85
2019-02-15T23:06:18.296Z,10.54
2019-02-15T23:11:26.145Z,10.06
2019-02-15T23:16:33.523Z,11.22
2019-02-15T23:21:40.920Z,10.66
2019-02-15T23:26:49.554Z,20.01
2019-02-15T23:31:56.776Z,12.36
2019-02-15T23:37:05.698Z,9.87
2019-02-15T23:42:13.091Z,10.05
2019-02-15T23:47:20.873Z,7.33
2019-02-15T23:52:28.101Z,5.61
2019-02-15T23:57:35.354Z,6.94
